createdAt,value
2023-04-09T03:01:45.105Z,9.55
2023-04-09T03:04:13.542Z,9.50
2023-04-09T03:06:41.434Z,9.00
2023-04-09T03:09:09.285Z,10.48
2023-04-09T03:11:37.116Z,7.93
2023-04-09T03:14:04.940Z,9.32
2023-04-09T03:16:32.805Z,9.98
2023-04-09T03:19:02.080Z,9.70
2023-04-09T03:21:31.991Z,9.65
2023-04-09T03:24:00.073Z,8.65
2023-04-09T03:26:28.047Z,9.45
2023-04-09T03:28:56.232Z,8.85
2023-04-09T03:31:24.308Z,8.95
2023-04-09T03:33:52.210Z,8.88
2023-04-09T03:36:21.642Z,8.85
2023-04-09T03:39:00.267Z,9.90
2023-04-09T03:41:34.932Z,10.05
2023-04-09T03:44:06.724Z,8.40
2023-04-09T03:46:45.497Z,8.60
2023-04-09T03:49:17.586Z,10.65
2023-04-09T03:51:47.842Z,8.77
2023-04-09T03:54:16.425Z,9.20
2023-04-09T03:56:46.090Z,8.57
2023-04-09T03:59:16.618Z,10.35
2023-04-09T04:01:48.230Z,9.50
2023-04-09T04:04:17.132Z,8.35
2023-04-09T04:06:50.882Z,7.88
2023-04-09T04:09:44.713Z,10.18
2023-04-09T04:12:16.434Z,9.48
2023-04-09T04:15:02.885Z,9.27
2023-04-09T04:17:37.070Z,8.98
2023-04-09T04:20:10.900Z,8.48
2023-04-09T04:22:52.503Z,9.52
2023-04-09T04:25:22.784Z,9.90
2023-04-09T04:27:51.236Z,7.30
2023-04-09T04:30:23.160Z,8.23
2023-04-09T04:32:59.040Z,9.83
2023-04-09T04:35:29.288Z,11.20
2023-04-09T04:38:01.485Z,10.77
2023-04-09T04:40:30.285Z,11.47
2023-04-09T04:43:02.191Z,10.30
2023-04-09T04:45:30.453Z,9.90
2023-04-09T04:48:04.101Z,9.97
2023-04-09T04:50:32.629Z,8.07
2023-04-09T04:53:06.563Z,9.20
2023-04-09T04:55:42.568Z,9.75
2023-04-09T04:58:14.763Z,9.50
2023-04-09T05:00:47.693Z,9.80
2023-04-09T05:03:16.207Z,9.70
2023-04-09T05:05:55.852Z,9.37
2023-04-09T05:08:26.635Z,10.37
2023-04-09T05:10:56.857Z,9.35
2023-04-09T05:13:32.152Z,11.98
2023-04-09T05:16:00.298Z,10.95
2023-04-09T05:18:28.418Z,12.50
2023-04-09T05:20:56.250Z,10.90
2023-04-09T05:23:26.578Z,9.23
2023-04-09T05:25:54.504Z,11.07
2023-04-09T05:28:34.282Z,9.07
2023-04-09T05:31:13.369Z,8.83
2023-04-09T05:33:47.577Z,10.13
2023-04-09T05:36:21.376Z,10.07
2023-04-09T05:38:50.781Z,10.60
2023-04-09T05:41:18.895Z,11.27
2023-04-09T05:44:02.632Z,9.85
2023-04-09T05:46:31.371Z,11.17
2023-04-09T05:49:00.173Z,11.68
2023-04-09T05:51:29.938Z,9.30
2023-04-09T05:54:00.393Z,10.10
2023-04-09T05:56:34.189Z,10.30
2023-04-09T05:59:02.560Z,11.33
2023-04-09T06:01:30.707Z,9.60
2023-04-09T06:03:59.022Z,10.38
2023-04-09T06:06:30.969Z,11.43
2023-04-09T06:09:00.330Z,10.60
2023-04-09T06:11:28.222Z,12.30
2023-04-09T06:13:56.094Z,10.95
2023-04-09T06:16:24.219Z,13.85
2023-04-09T06:18:54.456Z,13.17
2023-04-09T06:21:22.294Z,12.80
2023-04-09T06:23:50.519Z,16.48
2023-04-09T06:26:19.891Z,14.63
2023-04-09T06:28:47.791Z,17.77
2023-04-09T06:31:15.674Z,16.63
2023-04-09T06:33:43.632Z,15.55
2023-04-09T06:36:11.906Z,15.82
2023-04-09T06:38:39.760Z,14.80
2023-04-09T06:41:08.950Z,15.73
2023-04-09T06:43:38.136Z,16.70
2023-04-09T06:46:06.117Z,17.63
2023-04-09T06:48:34.131Z,15.68
2023-04-09T06:51:02.247Z,17.48
2023-04-09T06:53:30.513Z,17.08
2023-04-09T06:55:58.343Z,16.67
2023-04-09T06:58:26.286Z,18.13
2023-04-09T07:00:55.823Z,18.10
2023-04-09T07:03:24.008Z,16.67
2023-04-09T07:05:52.010Z,18.67
2023-04-09T07:08:20.003Z,19.63
2023-04-09T07:10:47.914Z,17.67
2023-04-09T07:13:16.121Z,18.27
2023-04-09T07:15:44.054Z,18.67
2023-04-09T07:18:13.470Z,20.15
2023-04-09T07:20:41.343Z,20.02
2023-04-09T07:23:09.225Z,23.15
2023-04-09T07:25:37.266Z,19.83
2023-04-09T07:28:05.257Z,21.33
2023-04-09T07:30:33.111Z,17.92
2023-04-09T07:33:00.988Z,18.85
2023-04-09T07:35:30.461Z,19.27
2023-04-09T07:37:58.803Z,20.40
2023-04-09T07:40:27.089Z,20.58
2023-04-09T07:42:55.678Z,21.63
2023-04-09T07:45:23.694Z,19.85
2023-04-09T07:47:51.563Z,20.52
2023-04-09T07:50:19.466Z,20.52
2023-04-09T07:52:48.639Z,19.08
2023-04-09T07:55:17.435Z,18.67
2023-04-09T07:57:46.538Z,21.23
2023-04-09T08:00:15.538Z,19.42
2023-04-09T08:02:44.828Z,22.05
2023-04-09T08:05:13.170Z,21.90
2023-04-09T08:07:41.137Z,20.65
2023-04-09T08:10:15.021Z,19.35
2023-04-09T08:12:43.012Z,19.67
2023-04-09T08:15:11.853Z,19.38
2023-04-09T08:17:39.718Z,22.23
2023-04-09T08:20:09.071Z,20.13
2023-04-09T08:22:36.964Z,20.60
2023-04-09T08:25:05.075Z,21.10
2023-04-09T08:27:34.697Z,20.88
2023-04-09T08:30:02.512Z,19.63
2023-04-09T08:32:30.435Z,22.48
2023-04-09T08:34:58.304Z,20.83
2023-04-09T08:37:26.743Z,20.98
2023-04-09T08:39:54.667Z,17.85
2023-04-09T08:42:24.028Z,19.95
2023-04-09T08:44:53.236Z,18.70
2023-04-09T08:47:22.022Z,19.55
2023-04-09T08:49:50.266Z,20.75
2023-04-09T08:52:22.021Z,20.75
2023-04-09T08:54:52.270Z,17.45
2023-04-09T08:57:20.104Z,19.23
2023-04-09T08:59:48.012Z,19.58
2023-04-09T09:02:17.236Z,22.05
2023-04-09T09:04:47.164Z,20.65
2023-04-09T09:07:15.992Z,21.23
2023-04-09T09:09:54.593Z,20.83
2023-04-09T09:12:36.648Z,20.80
2023-04-09T09:15:05.192Z,18.73
2023-04-09T09:17:35.744Z,19.52
2023-04-09T09:20:20.702Z,17.08
2023-04-09T09:22:55.199Z,18.23
2023-04-09T09:25:25.508Z,19.80
2023-04-09T09:27:54.388Z,17.92
2023-04-09T09:30:23.157Z,18.88
2023-04-09T09:32:55.384Z,17.05
2023-04-09T09:35:23.543Z,17.23
2023-04-09T09:38:03.740Z,15.98
2023-04-09T09:40:31.893Z,19.15
2023-04-09T09:42:59.974Z,16.95
2023-04-09T09:45:30.093Z,17.33
2023-04-09T09:48:01.617Z,16.02
2023-04-09T09:50:31.982Z,17.83
2023-04-09T09:53:04.613Z,15.63
2023-04-09T09:55:50.477Z,16.42
2023-04-09T09:58:28.634Z,17.65
2023-04-09T10:00:57.458Z,16.15
2023-04-09T10:03:30.297Z,17.30
2023-04-09T10:05:59.932Z,17.48
2023-04-09T10:08:29.216Z,16.55
2023-04-09T10:10:57.222Z,14.75
2023-04-09T10:13:32.384Z,13.02
2023-04-09T10:16:00.704Z,14.45
2023-04-09T10:18:30.476Z,12.73
2023-04-09T10:21:00.610Z,10.57
2023-04-09T10:23:34.984Z,10.88
2023-04-09T10:26:03.008Z,9.95
2023-04-09T10:28:31.094Z,14.20
2023-04-09T10:31:00.821Z,13.57
2023-04-09T10:33:31.340Z,9.70
2023-04-09T10:36:01.898Z,11.45
2023-04-09T10:38:40.759Z,10.32
2023-04-09T10:41:11.152Z,10.88
2023-04-09T10:43:39.016Z,9.85
2023-04-09T10:46:27.147Z,10.77
2023-04-09T10:49:12.294Z,10.02
2023-04-09T10:51:40.891Z,9.73
2023-04-09T10:54:47.696Z,8.65
2023-04-09T10:57:20.762Z,9.25
2023-04-09T10:59:50.990Z,8.68
2023-04-09T11:02:56.051Z,8.40
2023-04-09T11:05:32.351Z,9.20
2023-04-09T11:08:06.965Z,9.98
2023-04-09T11:10:36.643Z,9.43
2023-04-09T11:13:05.406Z,10.18
2023-04-09T11:15:35.448Z,11.35
2023-04-09T11:18:04.038Z,9.95
2023-04-09T11:20:39.739Z,8.95
2023-04-09T11:23:11.576Z,8.07
2023-04-09T11:25:40.253Z,3.53
2023-04-09T11:28:08.635Z,2.63
2023-04-09T11:30:37.475Z,3.75
2023-04-09T11:33:05.677Z,3.85
2023-04-09T11:35:37.419Z,4.20
2023-04-09T11:38:09.618Z,4.00
2023-04-09T11:40:51.703Z,4.65
2023-04-09T11:43:21.006Z,4.88
2023-04-09T11:45:51.548Z,5.10
2023-04-09T11:48:21.627Z,6.57
2023-04-09T11:50:55.666Z,5.50
2023-04-09T11:53:24.560Z,5.13
2023-04-09T11:55:54.057Z,6.43
2023-04-09T11:58:24.579Z,6.88
2023-04-09T12:00:57.635Z,5.07
2023-04-09T12:03:33.860Z,6.47
2023-04-09T12:06:04.600Z,6.97
2023-04-09T12:08:35.057Z,5.95
2023-04-09T12:11:11.151Z,5.43
2023-04-09T12:13:43.367Z,8.65
2023-04-09T12:16:12.025Z,6.07
2023-04-09T12:18:41.307Z,5.47
2023-04-09T12:21:11.188Z,5.88
2023-04-09T12:23:39.365Z,6.45
2023-04-09T12:26:09.109Z,6.45
2023-04-09T12:28:37.361Z,6.13
2023-04-09T12:31:06.341Z,7.05
2023-04-09T12:33:34.324Z,7.15
2023-04-09T12:36:02.460Z,6.97
2023-04-09T12:38:31.886Z,6.50
2023-04-09T12:41:01.102Z,8.70
2023-04-09T12:43:28.936Z,6.97
2023-04-09T12:45:57.123Z,8.05
2023-04-09T12:48:25.092Z,6.95
2023-04-09T12:50:52.975Z,6.20
2023-04-09T12:53:20.873Z,7.18
2023-04-09T12:55:50.067Z,6.88
2023-04-09T12:58:18.057Z,6.97
2023-04-09T13:00:45.977Z,7.15
2023-04-09T13:03:16.511Z,7.13
2023-04-09T13:05:44.711Z,6.50
2023-04-09T13:08:12.585Z,7.45
2023-04-09T13:10:40.960Z,7.00
2023-04-09T13:13:12.868Z,8.02
2023-04-09T13:15:43.263Z,6.47
2023-04-09T13:18:11.301Z,7.03
2023-04-09T13:20:39.451Z,7.85
2023-04-09T13:23:07.620Z,7.75
2023-04-09T13:25:35.596Z,9.30
2023-04-09T13:28:03.705Z,7.13
2023-04-09T13:30:32.962Z,8.30
2023-04-09T13:33:04.103Z,7.90
2023-04-09T13:35:34.032Z,7.43
2023-04-09T13:38:03.253Z,7.97
2023-04-09T13:40:34.281Z,8.93
2023-04-09T13:43:02.488Z,7.65
2023-04-09T13:45:31.767Z,6.95
2023-04-09T13:48:02.849Z,6.32
2023-04-09T13:50:30.795Z,6.38
2023-04-09T13:52:58.787Z,5.93
2023-04-09T13:55:26.687Z,7.43
2023-04-09T13:58:00.784Z,6.10
2023-04-09T14:00:32.275Z,5.60
2023-04-09T14:03:00.376Z,5.75
2023-04-09T14:05:28.604Z,6.50
2023-04-09T14:07:56.762Z,6.10
2023-04-09T14:10:24.716Z,6.90
2023-04-09T14:12:52.617Z,6.70
2023-04-09T14:15:20.523Z,7.97
2023-04-09T14:17:50.083Z,6.88
2023-04-09T14:20:19.955Z,6.15
2023-04-09T14:22:49.448Z,5.82
2023-04-09T14:25:17.679Z,5.70
2023-04-09T14:27:45.567Z,5.75
2023-04-09T14:30:14.334Z,5.78
2023-04-09T14:32:43.113Z,5.93
2023-04-09T14:35:12.444Z,5.60
2023-04-09T14:37:40.999Z,6.03
2023-04-09T14:40:09.903Z,5.53
2023-04-09T14:42:37.768Z,4.97
2023-04-09T14:45:08.450Z,5.70
2023-04-09T14:47:36.450Z,5.30
2023-04-09T14:50:04.422Z,5.40
2023-04-09T14:52:45.814Z,5.53
2023-04-09T14:55:16.060Z,6.00
2023-04-09T14:57:43.972Z,5.35
2023-04-09T15:00:13.434Z,5.32
2023-04-09T15:02:52.579Z,5.63
2023-04-09T15:05:21.954Z,6.18
2023-04-09T15:07:52.179Z,5.75
2023-04-09T15:10:20.317Z,5.68
2023-04-09T15:12:49.244Z,5.32
2023-04-09T15:15:18.169Z,6.07
2023-04-09T15:17:46.117Z,5.82
2023-04-09T15:20:14.115Z,5.53
2023-04-09T15:22:42.294Z,5.00
2023-04-09T15:25:13.767Z,5.68
2023-04-09T15:27:42.121Z,5.30
2023-04-09T15:30:10.548Z,5.32
2023-04-09T15:32:38.361Z,5.18
2023-04-09T15:35:07.102Z,4.97
2023-04-09T15:37:34.990Z,5.95
2023-04-09T15:40:03.997Z,5.60
2023-04-09T15:42:33.162Z,5.55
2023-04-09T15:45:01.028Z,6.45
2023-04-09T15:47:30.618Z,5.70
2023-04-09T15:50:00.045Z,5.72
2023-04-09T15:52:27.930Z,5.60
2023-04-09T15:54:56.446Z,5.20
2023-04-09T15:57:24.279Z,6.10
2023-04-09T15:59:53.633Z,5.97
2023-04-09T16:02:22.678Z,5.60
2023-04-09T16:04:51.375Z,5.20
2023-04-09T16:07:19.625Z,6.22
2023-04-09T16:09:47.566Z,6.22
2023-04-09T16:12:15.395Z,5.63
2023-04-09T16:14:43.216Z,5.35
2023-04-09T16:17:12.389Z,5.07
2023-04-09T16:19:40.197Z,5.95
2023-04-09T16:22:08.480Z,7.15
2023-04-09T16:24:36.581Z,5.85
2023-04-09T16:27:04.709Z,5.68
2023-04-09T16:29:32.547Z,5.55
2023-04-09T16:32:00.464Z,5.10
2023-04-09T16:34:31.401Z,5.55
2023-04-09T16:36:59.246Z,5.47
2023-04-09T16:39:27.057Z,5.28
2023-04-09T16:41:54.875Z,5.00
2023-04-09T16:44:22.668Z,5.03
2023-04-09T16:46:50.504Z,5.60
2023-04-09T16:49:18.314Z,5.93
2023-04-09T16:51:47.517Z,5.80
2023-04-09T16:54:15.736Z,4.82
2023-04-09T16:56:43.997Z,6.43
2023-04-09T16:59:12.313Z,6.63
2023-04-09T17:01:40.255Z,5.80
2023-04-09T17:04:08.177Z,5.13
2023-04-09T17:06:36.095Z,5.32
2023-04-09T17:09:06.339Z,4.80
2023-04-09T17:11:34.509Z,5.93
2023-04-09T17:14:02.374Z,4.70
2023-04-09T17:16:30.408Z,5.25
2023-04-09T17:18:58.379Z,4.80
2023-04-09T17:21:26.417Z,5.00
2023-04-09T17:23:54.228Z,4.65
2023-04-09T17:26:24.629Z,6.20
2023-04-09T17:28:52.680Z,5.93
2023-04-09T17:31:24.148Z,5.93
2023-04-09T17:33:52.474Z,4.97
2023-04-09T17:36:22.577Z,5.28
2023-04-09T17:38:52.034Z,5.40
2023-04-09T17:41:20.169Z,5.38
2023-04-09T17:43:49.485Z,5.78
2023-04-09T17:46:19.027Z,5.32
2023-04-09T17:48:46.933Z,5.13
2023-04-09T17:51:16.250Z,6.07
2023-04-09T17:53:44.066Z,5.82
2023-04-09T17:56:16.174Z,5.10
2023-04-09T17:58:43.993Z,5.68
2023-04-09T18:01:13.872Z,5.18
2023-04-09T18:03:43.053Z,5.10
2023-04-09T18:06:11.148Z,7.13
2023-04-09T18:08:40.425Z,10.98
2023-04-09T18:11:12.692Z,12.45
2023-04-09T18:13:41.283Z,11.02
2023-04-09T18:16:10.370Z,11.32
2023-04-09T18:18:40.003Z,10.80
2023-04-09T18:21:08.052Z,12.48
2023-04-09T18:23:35.982Z,11.13
2023-04-09T18:26:03.790Z,10.63
2023-04-09T18:28:31.617Z,7.47
2023-04-09T18:30:59.480Z,7.88
2023-04-09T18:33:27.538Z,7.75
2023-04-09T18:36:00.084Z,7.63
2023-04-09T18:38:29.509Z,7.85
2023-04-09T18:40:57.693Z,7.43
2023-04-09T18:43:25.919Z,9.32
2023-04-09T18:45:53.857Z,10.00
2023-04-09T18:48:21.883Z,9.25
2023-04-09T18:50:49.744Z,6.20
2023-04-09T18:53:18.902Z,6.40
2023-04-09T18:55:46.820Z,6.25
2023-04-09T18:58:15.666Z,7.82
2023-04-09T19:00:44.597Z,8.15
2023-04-09T19:03:13.016Z,9.18
2023-04-09T19:05:41.113Z,9.43
2023-04-09T19:08:09.656Z,8.30
2023-04-09T19:10:39.724Z,8.48
2023-04-09T19:13:07.684Z,7.53
2023-04-09T19:15:35.669Z,9.05
2023-04-09T19:18:03.684Z,10.10
2023-04-09T19:20:31.663Z,9.55
2023-04-09T19:22:59.590Z,7.20
2023-04-09T19:25:28.675Z,9.40
2023-04-09T19:27:58.185Z,8.88
2023-04-09T19:30:26.266Z,7.65
2023-04-09T19:32:54.365Z,8.20
2023-04-09T19:35:22.567Z,10.05
2023-04-09T19:37:50.496Z,7.43
2023-04-09T19:40:18.373Z,10.02
2023-04-09T19:42:46.183Z,13.68
2023-04-09T19:45:15.605Z,7.85
2023-04-09T19:47:43.549Z,10.57
2023-04-09T19:50:11.979Z,9.93
2023-04-09T19:52:41.388Z,8.95
2023-04-09T19:55:10.625Z,8.95
2023-04-09T19:57:38.891Z,9.07
2023-04-09T20:00:08.605Z,8.35
2023-04-09T20:02:41.502Z,7.97
2023-04-09T20:05:10.397Z,10.45
2023-04-09T20:07:38.377Z,13.82
2023-04-09T20:10:07.436Z,10.82
2023-04-09T20:12:35.543Z,12.77
2023-04-09T20:15:03.728Z,11.75
2023-04-09T20:17:31.916Z,11.02
2023-04-09T20:20:01.191Z,9.75
2023-04-09T20:22:29.520Z,8.70
2023-04-09T20:24:57.933Z,8.40
2023-04-09T20:27:25.814Z,8.38
2023-04-09T20:29:54.045Z,8.82
2023-04-09T20:32:22.584Z,8.48
2023-04-09T20:34:50.589Z,8.13
2023-04-09T20:37:19.785Z,13.52
2023-04-09T20:39:47.637Z,13.77
2023-04-09T20:42:15.457Z,10.73
2023-04-09T20:44:43.285Z,11.68
2023-04-09T20:47:12.007Z,6.80
2023-04-09T20:49:39.937Z,7.68
2023-04-09T20:52:09.387Z,8.80
2023-04-09T20:54:39.180Z,8.85
2023-04-09T20:57:07.030Z,8.77
2023-04-09T20:59:34.857Z,9.43
2023-04-09T21:02:03.240Z,8.07
2023-04-09T21:04:31.368Z,8.75
2023-04-09T21:06:59.541Z,7.82
2023-04-09T21:09:27.397Z,8.25
2023-04-09T21:11:56.693Z,9.45
2023-04-09T21:14:24.541Z,8.30
2023-04-09T21:16:52.921Z,8.38
2023-04-09T21:19:20.847Z,9.82
2023-04-09T21:21:48.718Z,8.13
2023-04-09T21:24:18.246Z,8.30
2023-04-09T21:26:51.516Z,10.02
2023-04-09T21:29:21.826Z,10.32
2023-04-09T21:31:50.075Z,10.60
2023-04-09T21:34:18.213Z,9.52
2023-04-09T21:36:46.238Z,10.23
2023-04-09T21:39:14.356Z,8.88
2023-04-09T21:41:42.166Z,9.43
2023-04-09T21:44:10.094Z,10.13
2023-04-09T21:46:40.680Z,7.80
2023-04-09T21:49:08.906Z,10.05
2023-04-09T21:51:37.491Z,9.68
2023-04-09T21:54:06.050Z,7.47
2023-04-09T21:56:34.859Z,9.15
2023-04-09T21:59:03.170Z,9.75
